sensor_id;sensor_type;location;lat;lon;timestamp;P1;durP1;ratioP1;P2;durP2;ratioP2
73104;SDS011;61296;50.526;30.792;2023-04-03T00:14:56;24.77;;;11.95;;
73104;SDS011;61296;50.526;30.792;2023-04-03T00:30:22;27.25;;;12.30;;
73104;SDS011;61296;50.526;30.792;2023-04-03T00:45:43;29.00;;;11.80;;
73104;SDS011;61296;50.526;30.792;2023-04-03T01:01:06;23.00;;;12.43;;
73104;SDS011;61296;50.526;30.792;2023-04-03T01:16:29;33.08;;;12.50;;
73104;SDS011;61296;50.526;30.792;2023-04-03T01:31:53;31.83;;;12.98;;
73104;SDS011;61296;50.526;30.792;2023-04-03T01:47:15;29.20;;;12.13;;
73104;SDS011;61296;50.526;30.792;2023-04-03T02:02:34;27.00;;;12.95;;
73104;SDS011;61296;50.526;30.792;2023-04-03T02:17:53;26.17;;;12.23;;
73104;SDS011;61296;50.526;30.792;2023-04-03T02:33:14;29.77;;;13.00;;
73104;SDS011;61296;50.526;30.792;2023-04-03T02:48:34;75.47;;;24.08;;
73104;SDS011;61296;50.526;30.792;2023-04-03T03:03:54;96.50;;;35.95;;
73104;SDS011;61296;50.526;30.792;2023-04-03T03:19:13;53.65;;;23.02;;
73104;SDS011;61296;50.526;30.792;2023-04-03T03:34:32;38.08;;;17.10;;
73104;SDS011;61296;50.526;30.792;2023-04-03T03:49:52;37.35;;;15.02;;
73104;SDS011;61296;50.526;30.792;2023-04-03T04:05:12;35.95;;;15.23;;
73104;SDS011;61296;50.526;30.792;2023-04-03T04:20:39;38.55;;;16.27;;
73104;SDS011;61296;50.526;30.792;2023-04-03T04:35:58;40.05;;;17.52;;
73104;SDS011;61296;50.526;30.792;2023-04-03T04:51:18;36.85;;;16.77;;
73104;SDS011;61296;50.526;30.792;2023-04-03T05:06:38;33.58;;;15.10;;
73104;SDS011;61296;50.526;30.792;2023-04-03T05:22:02;36.25;;;16.55;;
73104;SDS011;61296;50.526;30.792;2023-04-03T05:37:22;39.13;;;16.70;;
73104;SDS011;61296;50.526;30.792;2023-04-03T05:52:45;37.72;;;16.00;;
73104;SDS011;61296;50.526;30.792;2023-04-03T06:08:07;40.63;;;17.30;;
73104;SDS011;61296;50.526;30.792;2023-04-03T06:23:28;40.92;;;17.52;;
73104;SDS011;61296;50.526;30.792;2023-04-03T06:38:48;39.85;;;17.88;;
73104;SDS011;61296;50.526;30.792;2023-04-03T06:54:07;37.35;;;16.13;;
73104;SDS011;61296;50.526;30.792;2023-04-03T07:09:26;44.80;;;20.40;;
73104;SDS011;61296;50.526;30.792;2023-04-03T07:24:46;43.47;;;18.17;;
73104;SDS011;61296;50.526;30.792;2023-04-03T07:40:06;38.83;;;19.30;;
73104;SDS011;61296;50.526;30.792;2023-04-03T07:55:25;52.15;;;23.33;;
73104;SDS011;61296;50.526;30.792;2023-04-03T08:11:03;34.55;;;16.23;;
73104;SDS011;61296;50.526;30.792;2023-04-03T08:43:43;22.37;;;11.70;;
73104;SDS011;61296;50.526;30.792;2023-04-03T08:59:26;23.83;;;13.25;;
73104;SDS011;61296;50.526;30.792;2023-04-03T09:15:43;24.75;;;12.27;;
73104;SDS011;61296;50.526;30.792;2023-04-03T09:31:50;18.23;;;10.88;;
73104;SDS011;61296;50.526;30.792;2023-04-03T09:47:19;15.65;;;9.57;;
73104;SDS011;61296;50.526;30.792;2023-04-03T10:02:46;15.93;;;9.73;;
73104;SDS011;61296;50.526;30.792;2023-04-03T10:34:05;16.42;;;10.75;;
73104;SDS011;61296;50.526;30.792;2023-04-03T10:49:51;14.68;;;9.90;;
73104;SDS011;61296;50.526;30.792;2023-04-03T11:05:45;18.25;;;9.13;;
73104;SDS011;61296;50.526;30.792;2023-04-03T11:21:28;12.57;;;8.75;;
73104;SDS011;61296;50.526;30.792;2023-04-03T11:36:54;14.10;;;9.20;;
73104;SDS011;61296;50.526;30.792;2023-04-03T12:55:19;11.02;;;6.95;;
73104;SDS011;61296;50.526;30.792;2023-04-03T13:10:51;15.75;;;8.05;;
73104;SDS011;61296;50.526;30.792;2023-04-03T13:26:20;14.73;;;7.95;;
73104;SDS011;61296;50.526;30.792;2023-04-03T13:41:42;16.33;;;8.55;;
73104;SDS011;61296;50.526;30.792;2023-04-03T13:57:12;13.18;;;7.38;;
73104;SDS011;61296;50.526;30.792;2023-04-03T14:12:34;15.95;;;8.32;;
73104;SDS011;61296;50.526;30.792;2023-04-03T14:27:55;16.50;;;8.05;;
73104;SDS011;61296;50.526;30.792;2023-04-03T14:43:15;13.75;;;7.47;;
73104;SDS011;61296;50.526;30.792;2023-04-03T14:58:35;10.10;;;5.68;;
73104;SDS011;61296;50.526;30.792;2023-04-03T15:13:59;7.47;;;4.80;;
73104;SDS011;61296;50.526;30.792;2023-04-03T15:29:18;8.63;;;4.97;;
73104;SDS011;61296;50.526;30.792;2023-04-03T15:44:38;8.50;;;4.68;;
73104;SDS011;61296;50.526;30.792;2023-04-03T15:59:58;7.32;;;4.22;;
73104;SDS011;61296;50.526;30.792;2023-04-03T16:15:17;8.57;;;4.65;;
73104;SDS011;61296;50.526;30.792;2023-04-03T16:30:37;7.80;;;4.57;;
73104;SDS011;61296;50.526;30.792;2023-04-03T16:45:58;7.93;;;4.07;;
73104;SDS011;61296;50.526;30.792;2023-04-03T17:01:18;5.68;;;3.55;;
73104;SDS011;61296;50.526;30.792;2023-04-03T17:16:38;7.50;;;3.75;;
73104;SDS011;61296;50.526;30.792;2023-04-03T17:31:58;6.68;;;3.58;;
73104;SDS011;61296;50.526;30.792;2023-04-03T17:47:18;9.38;;;4.72;;
73104;SDS011;61296;50.526;30.792;2023-04-03T18:02:37;7.00;;;3.95;;
73104;SDS011;61296;50.526;30.792;2023-04-03T18:17:57;9.25;;;4.55;;
73104;SDS011;61296;50.526;30.792;2023-04-03T18:33:18;9.30;;;4.30;;
73104;SDS011;61296;50.526;30.792;2023-04-03T18:48:37;9.93;;;5.00;;
73104;SDS011;61296;50.526;30.792;2023-04-03T19:04:03;51.25;;;21.13;;
73104;SDS011;61296;50.526;30.792;2023-04-03T19:20:00;11.30;;;4.90;;
73104;SDS011;61296;50.526;30.792;2023-04-03T19:35:26;14.48;;;6.30;;
73104;SDS011;61296;50.526;30.792;2023-04-03T19:50:46;9.85;;;5.70;;
73104;SDS011;61296;50.526;30.792;2023-04-03T20:06:05;12.65;;;7.18;;
73104;SDS011;61296;50.526;30.792;2023-04-03T20:21:28;12.35;;;6.70;;
73104;SDS011;61296;50.526;30.792;2023-04-03T20:36:51;13.57;;;7.65;;
73104;SDS011;61296;50.526;30.792;2023-04-03T20:52:11;13.73;;;7.05;;
73104;SDS011;61296;50.526;30.792;2023-04-03T21:23:29;15.67;;;8.00;;
73104;SDS011;61296;50.526;30.792;2023-04-03T21:38:49;16.30;;;8.18;;
73104;SDS011;61296;50.526;30.792;2023-04-03T21:54:13;19.60;;;9.30;;
73104;SDS011;61296;50.526;30.792;2023-04-03T22:09:36;20.47;;;10.33;;
73104;SDS011;61296;50.526;30.792;2023-04-03T22:24:55;17.98;;;9.20;;
73104;SDS011;61296;50.526;30.792;2023-04-03T22:40:15;17.33;;;8.52;;
73104;SDS011;61296;50.526;30.792;2023-04-03T22:55:36;18.40;;;8.73;;
73104;SDS011;61296;50.526;30.792;2023-04-03T23:10:56;16.50;;;7.68;;
73104;SDS011;61296;50.526;30.792;2023-04-03T23:26:18;12.90;;;6.68;;
73104;SDS011;61296;50.526;30.792;2023-04-03T23:41:37;11.25;;;6.22;;
73104;SDS011;61296;50.526;30.792;2023-04-03T23:56:55;14.52;;;7.18;;
